createdAt,value
2022-08-29T00:00:38.720Z,12.80
2022-08-29T00:03:08.995Z,12.80
2022-08-29T00:05:37.666Z,12.80
2022-08-29T00:08:07.060Z,12.80
2022-08-29T00:10:36.194Z,12.80
2022-08-29T00:13:05.619Z,12.80
2022-08-29T00:15:33.028Z,12.80
2022-08-29T00:18:13.417Z,12.80
2022-08-29T00:20:40.769Z,12.80
2022-08-29T00:23:07.893Z,12.70
2022-08-29T00:25:35.137Z,12.70
2022-08-29T00:28:02.729Z,12.70
2022-08-29T00:30:29.809Z,12.70
2022-08-29T00:32:56.709Z,12.60
2022-08-29T00:35:28.082Z,12.60
2022-08-29T00:37:55.511Z,12.60
2022-08-29T00:40:30.651Z,12.50
2022-08-29T00:42:57.570Z,12.50
2022-08-29T00:45:24.770Z,12.60
2022-08-29T00:48:14.260Z,12.50
2022-08-29T00:50:47.935Z,12.50
2022-08-29T00:53:17.316Z,12.50
2022-08-29T00:55:50.543Z,12.40
2022-08-29T00:58:42.125Z,12.40
2022-08-29T01:01:10.306Z,12.40
2022-08-29T01:03:40.997Z,12.30
2022-08-29T01:06:11.320Z,12.30
2022-08-29T01:08:38.118Z,12.30
2022-08-29T01:11:23.361Z,12.30
2022-08-29T01:13:53.364Z,12.30
2022-08-29T01:16:21.388Z,12.20
2022-08-29T01:18:53.442Z,12.20
2022-08-29T01:21:30.048Z,12.10
2022-08-29T01:24:11.263Z,12.20
2022-08-29T01:26:38.080Z,12.10
2022-08-29T01:29:05.038Z,12.10
2022-08-29T01:31:57.416Z,12.10
2022-08-29T01:34:26.881Z,12.10
2022-08-29T01:37:00.053Z,12.00
2022-08-29T01:39:30.195Z,12.00
2022-08-29T01:41:58.538Z,12.00
2022-08-29T01:44:26.300Z,11.90
2022-08-29T01:47:01.773Z,11.90
2022-08-29T01:49:30.255Z,11.90
2022-08-29T01:51:57.212Z,11.90
2022-08-29T01:54:23.998Z,11.90
2022-08-29T01:56:53.046Z,11.90
2022-08-29T01:59:27.114Z,11.90
2022-08-29T02:01:59.767Z,11.80
2022-08-29T02:04:27.363Z,11.80
2022-08-29T02:06:58.435Z,11.70
2022-08-29T02:09:27.253Z,11.70
2022-08-29T02:11:56.067Z,11.70
2022-08-29T02:14:23.703Z,11.70
2022-08-29T02:16:50.902Z,11.70
2022-08-29T02:19:19.154Z,11.70
2022-08-29T02:21:46.233Z,11.60
2022-08-29T02:24:25.507Z,11.60
2022-08-29T02:26:54.436Z,11.60
2022-08-29T02:29:21.484Z,11.60
2022-08-29T02:31:48.720Z,11.60
2022-08-29T02:34:16.342Z,11.50
2022-08-29T02:36:44.582Z,11.50
2022-08-29T02:39:12.140Z,11.40
2022-08-29T02:41:39.090Z,11.40
2022-08-29T02:44:07.989Z,11.50
2022-08-29T02:46:34.830Z,11.40
2022-08-29T02:49:01.716Z,11.40
2022-08-29T02:51:33.231Z,11.40
2022-08-29T02:54:01.685Z,11.40
2022-08-29T02:56:29.885Z,11.30
2022-08-29T02:58:57.735Z,11.30
2022-08-29T03:01:26.246Z,11.30
2022-08-29T03:03:53.712Z,11.30
2022-08-29T03:06:21.052Z,11.20
2022-08-29T03:08:47.986Z,11.20
2022-08-29T03:11:16.058Z,11.20
2022-08-29T03:13:44.307Z,11.20
2022-08-29T03:16:12.209Z,11.20
2022-08-29T03:18:39.111Z,11.10
2022-08-29T03:21:13.505Z,11.10
2022-08-29T03:23:40.284Z,11.00
2022-08-29T03:26:07.061Z,11.00
2022-08-29T03:28:33.833Z,11.00
2022-08-29T03:31:00.642Z,10.90
2022-08-29T03:33:27.441Z,10.90
2022-08-29T03:35:54.188Z,10.90
2022-08-29T03:38:22.744Z,10.90
2022-08-29T03:40:49.484Z,10.90
2022-08-29T03:43:16.373Z,10.90
2022-08-29T03:45:43.228Z,10.80
2022-08-29T03:48:10.084Z,10.80
2022-08-29T03:50:36.892Z,10.80
2022-08-29T03:53:03.838Z,10.80
2022-08-29T03:55:30.685Z,10.70
2022-08-29T03:57:57.493Z,10.80
2022-08-29T04:00:24.466Z,10.70
2022-08-29T04:02:53.759Z,10.80
2022-08-29T04:05:21.924Z,10.80
2022-08-29T04:07:50.701Z,10.80
2022-08-29T04:10:21.653Z,10.70
2022-08-29T04:12:53.817Z,10.70
2022-08-29T04:15:22.599Z,10.60
2022-08-29T04:17:55.347Z,10.60
2022-08-29T04:20:25.807Z,10.60
2022-08-29T04:22:54.737Z,10.60
2022-08-29T04:25:22.580Z,10.60
2022-08-29T04:27:49.643Z,10.50
2022-08-29T04:30:18.864Z,10.50
2022-08-29T04:32:46.128Z,10.50
2022-08-29T04:35:14.922Z,10.60
2022-08-29T04:37:43.019Z,10.60
2022-08-29T04:40:13.795Z,10.60
2022-08-29T04:42:40.629Z,10.60
2022-08-29T04:45:09.407Z,10.60
2022-08-29T04:47:36.621Z,10.60
2022-08-29T04:50:04.934Z,10.60
2022-08-29T04:52:31.926Z,10.50
2022-08-29T04:55:00.092Z,10.50
2022-08-29T04:57:26.965Z,10.50
2022-08-29T04:59:58.865Z,10.60
2022-08-29T05:02:27.631Z,10.50
2022-08-29T05:04:56.650Z,10.50
2022-08-29T05:07:25.656Z,10.50
2022-08-29T05:10:02.495Z,10.50
2022-08-29T05:12:31.248Z,10.60
2022-08-29T05:14:58.117Z,10.60
2022-08-29T05:17:25.855Z,10.70
2022-08-29T05:19:53.005Z,10.70
2022-08-29T05:22:20.873Z,10.80
2022-08-29T05:24:48.865Z,10.90
2022-08-29T05:27:19.140Z,10.90
2022-08-29T05:29:48.263Z,10.90
2022-08-29T05:32:16.004Z,11.00
2022-08-29T05:34:44.063Z,11.00
2022-08-29T05:37:19.001Z,11.00
2022-08-29T05:39:47.295Z,11.10
2022-08-29T05:42:16.373Z,11.10
2022-08-29T05:44:43.236Z,11.10
2022-08-29T05:47:11.840Z,11.20
2022-08-29T05:49:40.656Z,11.30
2022-08-29T05:52:07.926Z,11.30
2022-08-29T05:54:37.884Z,11.40
2022-08-29T05:57:06.829Z,11.50
2022-08-29T05:59:34.779Z,11.50
2022-08-29T06:02:01.628Z,11.60
2022-08-29T06:04:28.635Z,11.70
2022-08-29T06:06:55.497Z,11.80
2022-08-29T06:09:22.354Z,11.80
2022-08-29T06:11:51.317Z,11.90
2022-08-29T06:14:18.190Z,12.00
2022-08-29T06:16:45.180Z,12.10
2022-08-29T06:19:12.489Z,12.20
2022-08-29T06:21:39.496Z,12.30
2022-08-29T06:24:06.723Z,12.40
2022-08-29T06:26:34.301Z,12.40
2022-08-29T06:29:03.868Z,12.50
2022-08-29T06:31:30.717Z,12.70
2022-08-29T06:34:00.484Z,12.80
2022-08-29T06:36:29.173Z,13.10
2022-08-29T06:39:00.053Z,13.30
2022-08-29T06:41:28.531Z,13.50
2022-08-29T06:43:56.918Z,13.80
2022-08-29T06:46:30.951Z,14.00
2022-08-29T06:48:59.347Z,14.30
2022-08-29T06:51:27.324Z,14.60
2022-08-29T06:53:54.168Z,14.90
2022-08-29T06:56:21.286Z,15.30
2022-08-29T06:58:48.129Z,15.60
2022-08-29T07:01:17.498Z,15.90
2022-08-29T07:03:44.599Z,16.20
2022-08-29T07:06:12.193Z,16.20
2022-08-29T07:08:55.180Z,16.60
2022-08-29T07:11:27.555Z,16.70
2022-08-29T07:14:00.588Z,17.00
2022-08-29T07:16:28.649Z,17.30
2022-08-29T07:18:55.794Z,17.50
2022-08-29T07:21:24.784Z,17.90
2022-08-29T07:23:52.945Z,18.20
2022-08-29T07:26:25.793Z,18.50
2022-08-29T07:28:55.781Z,18.70
2022-08-29T07:31:23.075Z,18.80
2022-08-29T07:33:57.088Z,19.00
2022-08-29T07:36:31.224Z,19.30
2022-08-29T07:38:58.085Z,19.60
2022-08-29T07:41:25.664Z,19.90
2022-08-29T07:43:52.855Z,20.10
2022-08-29T07:46:20.905Z,20.10
2022-08-29T07:48:48.528Z,20.40
2022-08-29T07:51:17.890Z,20.30
2022-08-29T07:53:46.565Z,20.50
2022-08-29T07:56:16.716Z,20.70
2022-08-29T07:58:43.699Z,20.80
2022-08-29T08:01:14.901Z,21.00
2022-08-29T08:03:50.054Z,21.00
2022-08-29T08:06:18.510Z,21.20
2022-08-29T08:08:45.427Z,21.30
2022-08-29T08:11:12.249Z,21.40
2022-08-29T08:13:39.448Z,21.40
2022-08-29T08:16:09.342Z,21.70
2022-08-29T08:18:37.570Z,22.10
2022-08-29T08:21:04.737Z,22.10
2022-08-29T08:23:31.600Z,22.20
2022-08-29T08:25:59.048Z,22.20
2022-08-29T08:28:28.165Z,22.20
2022-08-29T08:30:55.392Z,22.50
2022-08-29T08:33:22.484Z,22.70
2022-08-29T08:35:49.353Z,22.80
2022-08-29T08:38:17.110Z,22.90
2022-08-29T08:41:13.751Z,23.10
2022-08-29T08:44:06.689Z,23.40
2022-08-29T08:46:43.284Z,23.50
2022-08-29T08:49:26.959Z,23.60
2022-08-29T08:52:00.859Z,24.00
2022-08-29T08:54:34.294Z,24.20
2022-08-29T08:57:08.717Z,24.30
2022-08-29T08:59:45.372Z,24.40
2022-08-29T09:02:15.062Z,24.20
2022-08-29T09:04:48.204Z,24.10
2022-08-29T09:07:33.488Z,24.50
2022-08-29T09:10:33.888Z,24.40
2022-08-29T09:13:30.562Z,24.00
2022-08-29T09:16:01.292Z,24.60
2022-08-29T09:18:42.048Z,25.10
2022-08-29T09:21:39.574Z,25.20
2022-08-29T09:24:06.319Z,24.80
2022-08-29T09:26:35.001Z,24.70
2022-08-29T09:29:01.828Z,24.90
2022-08-29T09:31:34.546Z,24.60
2022-08-29T09:34:05.079Z,24.00
2022-08-29T09:36:43.121Z,24.30
2022-08-29T09:39:31.737Z,24.90
2022-08-29T09:42:13.688Z,26.10
2022-08-29T09:44:50.960Z,26.70
2022-08-29T09:47:25.722Z,26.70
2022-08-29T09:50:29.589Z,26.90
2022-08-29T09:53:01.760Z,27.60
2022-08-29T09:55:36.200Z,27.50
2022-08-29T09:58:08.285Z,26.70
2022-08-29T10:00:38.422Z,26.10
2022-08-29T10:03:10.125Z,25.70
2022-08-29T10:05:45.602Z,25.40
2022-08-29T10:08:42.443Z,25.10
2022-08-29T10:11:28.400Z,24.90
2022-08-29T10:14:12.969Z,24.60
2022-08-29T10:17:19.747Z,24.60
2022-08-29T10:19:46.865Z,24.60
2022-08-29T10:22:45.161Z,24.30
2022-08-29T10:25:17.977Z,24.30
2022-08-29T10:27:53.952Z,24.30
2022-08-29T10:30:23.649Z,24.20
2022-08-29T10:33:11.461Z,24.10
2022-08-29T10:35:54.397Z,24.00
2022-08-29T10:38:33.370Z,24.30
2022-08-29T10:41:17.185Z,25.00
2022-08-29T10:44:01.351Z,26.00
2022-08-29T10:46:37.061Z,26.10
2022-08-29T10:49:27.678Z,26.40
2022-08-29T10:52:13.072Z,26.80
2022-08-29T10:54:42.854Z,26.60
2022-08-29T10:57:11.848Z,26.50
2022-08-29T10:59:57.125Z,27.00
2022-08-29T11:03:00.861Z,27.60
2022-08-29T11:05:35.326Z,27.10
2022-08-29T11:08:15.391Z,27.60
2022-08-29T11:10:49.697Z,27.60
2022-08-29T11:13:39.724Z,27.50
2022-08-29T11:16:17.486Z,28.10
2022-08-29T11:18:50.894Z,28.90
2022-08-29T11:21:34.738Z,28.40
2022-08-29T11:24:04.176Z,28.90
2022-08-29T11:26:33.754Z,28.50
2022-08-29T11:29:22.759Z,28.50
2022-08-29T11:32:26.861Z,28.40
2022-08-29T11:34:53.644Z,28.40
2022-08-29T11:37:33.617Z,28.10
2022-08-29T11:43:28.503Z,27.50
2022-08-29T11:46:04.609Z,28.40
2022-08-29T11:48:39.006Z,29.20
2022-08-29T11:51:37.317Z,29.30
2022-08-29T11:54:42.282Z,28.00
2022-08-29T11:57:09.081Z,27.30
2022-08-29T11:59:54.684Z,27.60
2022-08-29T12:02:27.969Z,28.50
2022-08-29T12:05:16.372Z,28.60
2022-08-29T12:07:48.901Z,29.00
2022-08-29T12:10:24.332Z,29.20
2022-08-29T12:13:02.278Z,28.80
2022-08-29T12:15:35.324Z,29.00
2022-08-29T12:18:08.037Z,29.30
2022-08-29T12:20:45.097Z,29.20
2022-08-29T12:23:12.659Z,29.50
2022-08-29T12:25:45.481Z,29.20
2022-08-29T12:28:18.305Z,29.40
2022-08-29T12:30:51.248Z,29.50
2022-08-29T12:33:51.671Z,29.70
2022-08-29T12:37:03.930Z,29.60
2022-08-29T12:40:01.517Z,29.90
2022-08-29T12:43:06.818Z,29.80
2022-08-29T12:45:36.141Z,29.30
2022-08-29T12:48:11.311Z,29.00
2022-08-29T12:50:48.154Z,29.20
2022-08-29T12:53:30.930Z,29.30
2022-08-29T12:56:00.663Z,29.90
2022-08-29T12:58:53.088Z,29.70
2022-08-29T13:01:28.746Z,29.40
2022-08-29T13:04:20.438Z,29.70
2022-08-29T13:07:02.685Z,29.70
2022-08-29T13:09:43.703Z,29.10
2022-08-29T13:12:41.004Z,30.00
2022-08-29T13:15:18.375Z,29.90
2022-08-29T13:17:47.925Z,29.70
2022-08-29T13:20:46.004Z,29.40
2022-08-29T13:23:12.833Z,29.60
2022-08-29T13:25:50.924Z,29.50
2022-08-29T13:28:50.986Z,29.50
2022-08-29T13:31:18.462Z,29.40
2022-08-29T13:33:48.364Z,29.70
2022-08-29T13:36:27.163Z,29.50
2022-08-29T13:39:15.549Z,29.70
2022-08-29T13:42:01.198Z,30.20
2022-08-29T13:44:30.097Z,30.10
2022-08-29T13:47:00.954Z,30.30
2022-08-29T13:49:31.713Z,30.30
2022-08-29T13:51:59.471Z,30.90
2022-08-29T13:54:30.451Z,30.10
2022-08-29T13:57:00.373Z,30.70
2022-08-29T13:59:32.337Z,30.90
2022-08-29T14:02:10.999Z,31.10
2022-08-29T14:04:40.329Z,31.50
2022-08-29T14:07:11.657Z,31.20
2022-08-29T14:09:41.822Z,30.70
2022-08-29T14:12:09.125Z,30.20
2022-08-29T14:14:36.101Z,29.40
2022-08-29T14:17:03.169Z,29.10
2022-08-29T14:19:30.809Z,28.50
2022-08-29T14:22:02.421Z,27.90
2022-08-29T14:24:30.872Z,27.50
2022-08-29T14:27:01.531Z,27.20
2022-08-29T14:29:33.766Z,27.00
2022-08-29T14:32:02.991Z,27.40
2022-08-29T14:34:32.448Z,27.80
2022-08-29T14:37:02.793Z,28.10
2022-08-29T14:39:29.599Z,28.30
2022-08-29T14:41:56.651Z,28.40
2022-08-29T14:44:23.612Z,28.20
2022-08-29T14:46:51.785Z,28.30
2022-08-29T14:49:19.560Z,28.30
2022-08-29T14:51:47.162Z,28.00
2022-08-29T14:54:14.877Z,28.40
2022-08-29T14:56:50.585Z,28.20
2022-08-29T14:59:21.920Z,28.40
2022-08-29T15:01:54.275Z,28.30
2022-08-29T15:04:34.797Z,28.20
2022-08-29T15:07:07.759Z,28.50
2022-08-29T15:09:35.163Z,28.10
2022-08-29T15:12:02.009Z,27.70
2022-08-29T15:14:29.081Z,27.80
2022-08-29T15:16:55.928Z,27.30
2022-08-29T15:20:18.140Z,27.00
2022-08-29T15:22:09.867Z,27.20
2022-08-29T15:24:36.888Z,27.20
2022-08-29T15:27:04.256Z,27.30
2022-08-29T15:29:31.513Z,27.40
2022-08-29T15:31:58.490Z,27.30
2022-08-29T15:34:26.426Z,27.30
2022-08-29T15:36:55.389Z,27.10
2022-08-29T15:39:22.966Z,26.70
2022-08-29T15:41:49.772Z,26.40
2022-08-29T15:44:16.588Z,26.30
2022-08-29T15:46:43.445Z,26.10
2022-08-29T15:49:18.853Z,25.90
2022-08-29T15:51:45.750Z,25.90
2022-08-29T15:54:12.594Z,25.90
2022-08-29T15:56:39.568Z,26.00
2022-08-29T15:59:08.669Z,25.80
2022-08-29T16:01:44.849Z,26.00
2022-08-29T16:04:13.104Z,26.10
2022-08-29T16:06:40.081Z,26.10
2022-08-29T16:09:15.571Z,26.00
2022-08-29T16:11:44.138Z,25.80
2022-08-29T16:14:46.729Z,25.70
2022-08-29T16:16:57.818Z,25.50
2022-08-29T16:19:24.623Z,25.60
2022-08-29T16:21:51.561Z,25.60
2022-08-29T16:24:18.505Z,25.40
2022-08-29T16:26:45.973Z,25.40
2022-08-29T16:29:13.373Z,25.40
2022-08-29T16:31:40.712Z,25.40
2022-08-29T16:34:07.488Z,25.30
2022-08-29T16:36:34.877Z,25.20
2022-08-29T16:39:05.253Z,25.10
2022-08-29T16:41:32.393Z,25.10
2022-08-29T16:43:59.293Z,25.00
2022-08-29T16:46:27.863Z,24.90
2022-08-29T16:48:57.986Z,24.90
2022-08-29T16:51:27.133Z,24.70
2022-08-29T16:53:54.156Z,24.60
2022-08-29T16:56:21.418Z,24.50
2022-08-29T16:59:02.009Z,24.30
2022-08-29T17:01:30.135Z,24.10
2022-08-29T17:03:57.560Z,24.00
2022-08-29T17:06:24.357Z,23.80
2022-08-29T17:08:51.065Z,23.70
2022-08-29T17:11:19.473Z,23.60
2022-08-29T17:13:46.493Z,23.50
2022-08-29T17:16:13.951Z,23.50
2022-08-29T17:18:41.155Z,23.50
2022-08-29T17:21:08.589Z,23.40
2022-08-29T17:23:36.045Z,23.30
2022-08-29T17:26:05.758Z,23.30
2022-08-29T17:28:33.746Z,23.20
2022-08-29T17:31:00.599Z,23.20
2022-08-29T17:33:28.114Z,23.10
2022-08-29T17:35:55.967Z,23.00
2022-08-29T17:38:23.385Z,22.90
2022-08-29T17:40:58.384Z,22.70
2022-08-29T17:43:28.949Z,22.60
2022-08-29T17:45:57.540Z,22.40
2022-08-29T17:48:24.995Z,22.20
2022-08-29T17:50:52.128Z,22.00
2022-08-29T17:53:20.602Z,21.70
2022-08-29T17:55:47.858Z,21.50
2022-08-29T17:58:15.108Z,21.20
2022-08-29T18:00:42.193Z,21.10
2022-08-29T18:03:09.357Z,21.00
2022-08-29T18:05:36.192Z,21.00
2022-08-29T18:08:03.482Z,20.90
2022-08-29T18:10:30.473Z,20.80
2022-08-29T18:12:57.624Z,20.60
2022-08-29T18:15:24.491Z,20.50
2022-08-29T18:17:52.577Z,20.50
2022-08-29T18:20:21.648Z,20.40
2022-08-29T18:22:49.745Z,20.30
2022-08-29T18:25:17.641Z,20.20
2022-08-29T18:27:50.368Z,20.00
2022-08-29T18:30:17.649Z,19.80
2022-08-29T18:32:44.462Z,19.70
2022-08-29T18:35:13.844Z,19.60
2022-08-29T18:37:40.695Z,19.60
2022-08-29T18:40:09.455Z,19.50
2022-08-29T18:42:40.774Z,19.40
2022-08-29T18:45:08.617Z,19.30
2022-08-29T18:47:35.504Z,19.10
2022-08-29T18:50:20.763Z,19.10
2022-08-29T18:52:52.589Z,19.00
2022-08-29T18:55:19.838Z,18.90
2022-08-29T18:57:48.255Z,18.90
2022-08-29T19:00:16.596Z,18.70
2022-08-29T19:02:43.719Z,18.70
2022-08-29T19:05:10.793Z,18.60
2022-08-29T19:07:38.252Z,18.50
2022-08-29T19:10:06.512Z,18.40
2022-08-29T19:12:33.755Z,18.40
2022-08-29T19:15:00.567Z,18.30
2022-08-29T19:17:27.390Z,18.30
2022-08-29T19:20:12.929Z,18.20
2022-08-29T19:22:39.709Z,18.10
2022-08-29T19:25:08.721Z,18.00
2022-08-29T19:27:45.882Z,17.90
2022-08-29T19:30:16.571Z,17.80
2022-08-29T19:32:44.036Z,17.80
2022-08-29T19:35:12.828Z,17.80
2022-08-29T19:37:42.311Z,17.70
2022-08-29T19:40:11.686Z,17.60
2022-08-29T19:42:39.315Z,17.40
2022-08-29T19:45:09.818Z,17.40
2022-08-29T19:47:37.151Z,17.30
2022-08-29T19:50:06.049Z,17.30
2022-08-29T19:52:33.748Z,17.20
2022-08-29T19:55:03.825Z,17.10
2022-08-29T19:57:30.671Z,17.10
2022-08-29T19:59:57.466Z,17.00
2022-08-29T20:02:26.027Z,16.90
2022-08-29T20:04:53.205Z,16.80
2022-08-29T20:07:20.165Z,16.80
2022-08-29T20:09:47.913Z,16.80
2022-08-29T20:12:14.755Z,16.70
2022-08-29T20:14:41.919Z,16.70
2022-08-29T20:17:09.530Z,16.60
2022-08-29T20:19:37.008Z,16.60
2022-08-29T20:22:07.084Z,16.60
2022-08-29T20:24:34.385Z,16.50
2022-08-29T20:27:01.530Z,16.40
2022-08-29T20:29:29.673Z,16.30
2022-08-29T20:31:58.804Z,16.30
2022-08-29T20:34:29.698Z,16.30
2022-08-29T20:37:09.085Z,16.30
2022-08-29T20:39:39.062Z,16.20
2022-08-29T20:42:07.935Z,16.10
2022-08-29T20:44:37.921Z,16.10
2022-08-29T20:47:06.910Z,16.00
2022-08-29T20:49:34.988Z,15.90
2022-08-29T20:52:04.022Z,15.90
2022-08-29T20:54:31.605Z,15.90
2022-08-29T20:56:58.780Z,15.90
2022-08-29T20:59:26.922Z,15.80
2022-08-29T21:01:55.665Z,15.80
2022-08-29T21:04:41.113Z,15.80
2022-08-29T21:07:11.133Z,15.80
2022-08-29T21:09:43.220Z,15.70
2022-08-29T21:12:11.918Z,15.60
2022-08-29T21:14:40.120Z,15.60
2022-08-29T21:17:08.869Z,15.50
2022-08-29T21:19:35.698Z,15.50
2022-08-29T21:22:04.473Z,15.50
2022-08-29T21:24:31.536Z,15.50
2022-08-29T21:26:58.539Z,15.50
2022-08-29T21:29:25.308Z,15.40
2022-08-29T21:31:53.985Z,15.30
2022-08-29T21:34:21.538Z,15.30
2022-08-29T21:36:48.515Z,15.30
2022-08-29T21:39:28.241Z,15.20
2022-08-29T21:41:55.873Z,15.10
2022-08-29T21:44:22.680Z,15.10
2022-08-29T21:46:49.586Z,15.10
2022-08-29T21:49:19.368Z,15.10
2022-08-29T21:51:47.339Z,15.00
2022-08-29T21:54:15.396Z,15.00
2022-08-29T21:56:43.020Z,15.00
2022-08-29T21:59:10.718Z,14.90
2022-08-29T22:01:38.992Z,15.00
2022-08-29T22:04:09.111Z,15.00
2022-08-29T22:06:39.714Z,14.90
2022-08-29T22:09:14.105Z,14.90
2022-08-29T22:11:42.465Z,14.70
2022-08-29T22:14:11.658Z,14.70
2022-08-29T22:16:38.891Z,14.70
2022-08-29T22:19:16.513Z,14.70
2022-08-29T22:21:49.895Z,14.60
2022-08-29T22:24:18.164Z,14.60
2022-08-29T22:26:45.941Z,14.60
2022-08-29T22:29:14.140Z,14.60
2022-08-29T22:31:42.555Z,14.50
2022-08-29T22:34:13.919Z,14.60
2022-08-29T22:36:40.789Z,14.60
2022-08-29T22:39:07.742Z,14.60
2022-08-29T22:41:35.293Z,14.60
2022-08-29T22:44:42.311Z,14.60
2022-08-29T22:46:49.690Z,14.60
2022-08-29T22:49:16.932Z,14.50
2022-08-29T22:51:43.707Z,14.60
2022-08-29T22:54:29.212Z,14.50
2022-08-29T22:56:55.975Z,14.50
2022-08-29T22:59:22.938Z,14.40
2022-08-29T23:01:49.885Z,14.30
2022-08-29T23:04:16.848Z,14.30
2022-08-29T23:06:43.674Z,14.30
2022-08-29T23:09:11.184Z,14.20
2022-08-29T23:11:38.170Z,14.20
2022-08-29T23:14:05.789Z,14.20
2022-08-29T23:16:33.703Z,14.10
2022-08-29T23:19:01.610Z,14.10
2022-08-29T23:21:30.272Z,14.10
2022-08-29T23:23:58.158Z,14.00
2022-08-29T23:26:25.969Z,14.00
2022-08-29T23:28:53.742Z,13.90
2022-08-29T23:31:22.165Z,13.80
2022-08-29T23:33:49.386Z,13.90
2022-08-29T23:36:16.322Z,13.90
2022-08-29T23:38:43.602Z,13.80
2022-08-29T23:41:11.071Z,13.80
2022-08-29T23:43:37.844Z,13.70
2022-08-29T23:46:05.828Z,13.60
2022-08-29T23:48:33.567Z,13.60
2022-08-29T23:51:05.530Z,13.50
2022-08-29T23:53:32.401Z,13.50
2022-08-29T23:55:59.182Z,13.50
2022-08-29T23:58:26.038Z,13.50
